sensor_id;sensor_type;location;lat;lon;timestamp;temperature;humidity
19085;DHT22;9675;51.538;6.728;2023-05-09T00:01:32;20.90;99.90
19085;DHT22;9675;51.538;6.728;2023-05-09T00:04:00;20.90;99.90
19085;DHT22;9675;51.538;6.728;2023-05-09T00:06:28;20.80;99.90
19085;DHT22;9675;51.538;6.728;2023-05-09T00:08:57;20.70;99.90
19085;DHT22;9675;51.538;6.728;2023-05-09T00:11:24;20.70;99.90
19085;DHT22;9675;51.538;6.728;2023-05-09T00:13:51;20.70;99.90
19085;DHT22;9675;51.538;6.728;2023-05-09T00:16:18;20.60;99.90
19085;DHT22;9675;51.538;6.728;2023-05-09T00:18:48;20.60;99.90
19085;DHT22;9675;51.538;6.728;2023-05-09T00:21:16;20.70;99.90
19085;DHT22;9675;51.538;6.728;2023-05-09T00:23:45;20.60;99.90
19085;DHT22;9675;51.538;6.728;2023-05-09T00:26:13;20.60;99.90
19085;DHT22;9675;51.538;6.728;2023-05-09T00:28:41;20.60;99.90
19085;DHT22;9675;51.538;6.728;2023-05-09T00:31:08;20.60;99.90
19085;DHT22;9675;51.538;6.728;2023-05-09T00:33:35;20.50;99.90
19085;DHT22;9675;51.538;6.728;2023-05-09T00:36:02;20.60;99.90
19085;DHT22;9675;51.538;6.728;2023-05-09T00:38:30;20.50;99.90
19085;DHT22;9675;51.538;6.728;2023-05-09T00:40:58;20.60;99.90
19085;DHT22;9675;51.538;6.728;2023-05-09T00:43:25;20.50;99.90
19085;DHT22;9675;51.538;6.728;2023-05-09T00:45:52;20.50;99.90
19085;DHT22;9675;51.538;6.728;2023-05-09T00:48:20;20.50;99.90
19085;DHT22;9675;51.538;6.728;2023-05-09T00:50:47;20.40;99.90
19085;DHT22;9675;51.538;6.728;2023-05-09T00:53:17;20.40;99.90
19085;DHT22;9675;51.538;6.728;2023-05-09T00:55:45;20.40;99.90
19085;DHT22;9675;51.538;6.728;2023-05-09T00:58:13;20.40;99.90
19085;DHT22;9675;51.538;6.728;2023-05-09T01:00:40;20.30;99.90
19085;DHT22;9675;51.538;6.728;2023-05-09T01:03:08;20.30;99.90
19085;DHT22;9675;51.538;6.728;2023-05-09T01:05:49;20.30;99.90
19085;DHT22;9675;51.538;6.728;2023-05-09T01:08:39;20.20;99.90
19085;DHT22;9675;51.538;6.728;2023-05-09T01:11:14;20.20;99.90
19085;DHT22;9675;51.538;6.728;2023-05-09T01:13:58;20.10;99.90
19085;DHT22;9675;51.538;6.728;2023-05-09T01:16:38;20.10;99.90
19085;DHT22;9675;51.538;6.728;2023-05-09T01:19:33;20.10;99.90
19085;DHT22;9675;51.538;6.728;2023-05-09T01:22:17;20.00;99.90
19085;DHT22;9675;51.538;6.728;2023-05-09T01:25:05;20.00;99.90
19085;DHT22;9675;51.538;6.728;2023-05-09T01:27:52;20.00;99.90
19085;DHT22;9675;51.538;6.728;2023-05-09T01:30:26;20.00;99.90
19085;DHT22;9675;51.538;6.728;2023-05-09T01:32:59;19.90;99.90
19085;DHT22;9675;51.538;6.728;2023-05-09T01:35:35;19.90;99.90
19085;DHT22;9675;51.538;6.728;2023-05-09T01:38:09;19.90;99.90
19085;DHT22;9675;51.538;6.728;2023-05-09T01:40:39;19.90;99.90
19085;DHT22;9675;51.538;6.728;2023-05-09T01:43:09;19.90;99.90
19085;DHT22;9675;51.538;6.728;2023-05-09T01:45:39;19.80;99.90
19085;DHT22;9675;51.538;6.728;2023-05-09T01:48:09;19.80;99.90
19085;DHT22;9675;51.538;6.728;2023-05-09T01:50:42;19.80;99.90
19085;DHT22;9675;51.538;6.728;2023-05-09T01:53:11;19.80;99.90
19085;DHT22;9675;51.538;6.728;2023-05-09T01:55:40;19.70;99.90
19085;DHT22;9675;51.538;6.728;2023-05-09T01:58:10;19.70;99.90
19085;DHT22;9675;51.538;6.728;2023-05-09T02:00:39;19.70;99.90
19085;DHT22;9675;51.538;6.728;2023-05-09T02:03:07;19.70;99.90
19085;DHT22;9675;51.538;6.728;2023-05-09T02:05:35;19.70;99.90
19085;DHT22;9675;51.538;6.728;2023-05-09T02:08:04;19.70;99.90
19085;DHT22;9675;51.538;6.728;2023-05-09T02:10:33;19.70;99.90
19085;DHT22;9675;51.538;6.728;2023-05-09T02:13:00;19.70;99.90
19085;DHT22;9675;51.538;6.728;2023-05-09T02:15:28;19.70;99.90
19085;DHT22;9675;51.538;6.728;2023-05-09T02:17:57;19.70;99.90
19085;DHT22;9675;51.538;6.728;2023-05-09T02:20:24;19.70;99.90
19085;DHT22;9675;51.538;6.728;2023-05-09T02:22:51;19.70;99.90
19085;DHT22;9675;51.538;6.728;2023-05-09T02:25:18;19.60;99.90
19085;DHT22;9675;51.538;6.728;2023-05-09T02:27:46;19.60;99.90
19085;DHT22;9675;51.538;6.728;2023-05-09T02:30:17;19.60;99.90
19085;DHT22;9675;51.538;6.728;2023-05-09T02:32:49;19.60;99.90
19085;DHT22;9675;51.538;6.728;2023-05-09T02:35:21;19.60;99.90
19085;DHT22;9675;51.538;6.728;2023-05-09T02:37:50;19.60;99.90
19085;DHT22;9675;51.538;6.728;2023-05-09T02:40:19;19.60;99.90
19085;DHT22;9675;51.538;6.728;2023-05-09T02:42:47;19.60;99.90
19085;DHT22;9675;51.538;6.728;2023-05-09T02:45:14;19.60;99.90
19085;DHT22;9675;51.538;6.728;2023-05-09T02:47:41;19.60;99.90
19085;DHT22;9675;51.538;6.728;2023-05-09T02:50:09;19.60;99.90
19085;DHT22;9675;51.538;6.728;2023-05-09T02:52:38;19.60;99.90
19085;DHT22;9675;51.538;6.728;2023-05-09T02:55:06;19.60;99.90
19085;DHT22;9675;51.538;6.728;2023-05-09T02:57:34;19.50;99.90
19085;DHT22;9675;51.538;6.728;2023-05-09T03:00:02;19.50;99.90
19085;DHT22;9675;51.538;6.728;2023-05-09T03:02:33;19.50;99.90
19085;DHT22;9675;51.538;6.728;2023-05-09T03:05:00;19.50;99.90
19085;DHT22;9675;51.538;6.728;2023-05-09T03:07:27;19.50;99.90
19085;DHT22;9675;51.538;6.728;2023-05-09T03:09:56;19.50;99.90
19085;DHT22;9675;51.538;6.728;2023-05-09T03:12:23;19.40;99.90
19085;DHT22;9675;51.538;6.728;2023-05-09T03:14:50;19.40;99.90
19085;DHT22;9675;51.538;6.728;2023-05-09T03:17:17;19.40;99.90
19085;DHT22;9675;51.538;6.728;2023-05-09T03:19:46;19.40;99.90
19085;DHT22;9675;51.538;6.728;2023-05-09T03:22:13;19.40;99.90
19085;DHT22;9675;51.538;6.728;2023-05-09T03:24:40;19.40;99.90
19085;DHT22;9675;51.538;6.728;2023-05-09T03:27:12;19.40;99.90
19085;DHT22;9675;51.538;6.728;2023-05-09T03:29:39;19.40;99.90
19085;DHT22;9675;51.538;6.728;2023-05-09T03:32:06;19.40;99.90
19085;DHT22;9675;51.538;6.728;2023-05-09T03:34:33;19.40;99.90
19085;DHT22;9675;51.538;6.728;2023-05-09T03:37:00;19.40;99.90
19085;DHT22;9675;51.538;6.728;2023-05-09T03:39:27;19.30;99.90
19085;DHT22;9675;51.538;6.728;2023-05-09T03:41:54;19.30;99.90
19085;DHT22;9675;51.538;6.728;2023-05-09T03:44:23;19.40;99.90
19085;DHT22;9675;51.538;6.728;2023-05-09T03:46:50;19.40;99.90
19085;DHT22;9675;51.538;6.728;2023-05-09T03:49:17;19.30;99.90
19085;DHT22;9675;51.538;6.728;2023-05-09T03:51:44;19.30;99.90
19085;DHT22;9675;51.538;6.728;2023-05-09T03:54:11;19.30;99.90
19085;DHT22;9675;51.538;6.728;2023-05-09T03:56:38;19.30;99.90
19085;DHT22;9675;51.538;6.728;2023-05-09T03:59:05;19.30;99.90
19085;DHT22;9675;51.538;6.728;2023-05-09T04:01:34;19.30;99.90
19085;DHT22;9675;51.538;6.728;2023-05-09T04:04:01;19.30;99.90
19085;DHT22;9675;51.538;6.728;2023-05-09T04:06:28;19.30;99.90
19085;DHT22;9675;51.538;6.728;2023-05-09T04:08:55;19.30;99.90
19085;DHT22;9675;51.538;6.728;2023-05-09T04:11:22;19.30;99.90
19085;DHT22;9675;51.538;6.728;2023-05-09T04:13:50;19.30;99.90
19085;DHT22;9675;51.538;6.728;2023-05-09T04:16:17;19.30;99.90
19085;DHT22;9675;51.538;6.728;2023-05-09T04:18:45;19.30;99.90
19085;DHT22;9675;51.538;6.728;2023-05-09T04:21:12;19.20;99.90
19085;DHT22;9675;51.538;6.728;2023-05-09T04:23:39;19.20;99.90
19085;DHT22;9675;51.538;6.728;2023-05-09T04:26:08;19.30;99.90
19085;DHT22;9675;51.538;6.728;2023-05-09T04:28:36;19.30;99.90
19085;DHT22;9675;51.538;6.728;2023-05-09T04:31:03;19.30;99.90
19085;DHT22;9675;51.538;6.728;2023-05-09T04:33:31;19.30;99.90
19085;DHT22;9675;51.538;6.728;2023-05-09T04:35:59;19.30;99.90
19085;DHT22;9675;51.538;6.728;2023-05-09T04:38:26;19.20;99.90
19085;DHT22;9675;51.538;6.728;2023-05-09T04:40:53;19.20;99.90
19085;DHT22;9675;51.538;6.728;2023-05-09T04:43:20;19.20;99.90
19085;DHT22;9675;51.538;6.728;2023-05-09T04:45:48;19.20;99.90
19085;DHT22;9675;51.538;6.728;2023-05-09T04:48:15;19.20;99.90
19085;DHT22;9675;51.538;6.728;2023-05-09T04:50:42;19.20;99.90
19085;DHT22;9675;51.538;6.728;2023-05-09T04:53:11;19.20;99.90
19085;DHT22;9675;51.538;6.728;2023-05-09T04:55:38;19.20;99.90
19085;DHT22;9675;51.538;6.728;2023-05-09T04:58:05;19.20;99.90
19085;DHT22;9675;51.538;6.728;2023-05-09T05:00:34;19.10;99.90
19085;DHT22;9675;51.538;6.728;2023-05-09T05:03:01;19.10;99.90
19085;DHT22;9675;51.538;6.728;2023-05-09T05:05:28;19.10;99.90
19085;DHT22;9675;51.538;6.728;2023-05-09T05:07:55;19.10;99.90
19085;DHT22;9675;51.538;6.728;2023-05-09T05:10:23;19.10;99.90
19085;DHT22;9675;51.538;6.728;2023-05-09T05:12:50;19.10;99.90
19085;DHT22;9675;51.538;6.728;2023-05-09T05:15:17;19.10;99.90
19085;DHT22;9675;51.538;6.728;2023-05-09T05:17:45;19.10;99.90
19085;DHT22;9675;51.538;6.728;2023-05-09T05:20:12;19.10;99.90
19085;DHT22;9675;51.538;6.728;2023-05-09T05:22:39;19.10;99.90
19085;DHT22;9675;51.538;6.728;2023-05-09T05:25:07;19.10;99.90
19085;DHT22;9675;51.538;6.728;2023-05-09T05:27:39;19.10;99.90
19085;DHT22;9675;51.538;6.728;2023-05-09T05:30:07;19.10;99.90
19085;DHT22;9675;51.538;6.728;2023-05-09T05:32:34;19.10;99.90
19085;DHT22;9675;51.538;6.728;2023-05-09T05:35:01;19.10;99.90
19085;DHT22;9675;51.538;6.728;2023-05-09T05:37:29;19.00;99.90
19085;DHT22;9675;51.538;6.728;2023-05-09T05:39:56;19.00;99.90
19085;DHT22;9675;51.538;6.728;2023-05-09T05:42:23;19.00;99.90
19085;DHT22;9675;51.538;6.728;2023-05-09T05:44:52;19.00;99.90
19085;DHT22;9675;51.538;6.728;2023-05-09T05:47:19;19.00;99.90
19085;DHT22;9675;51.538;6.728;2023-05-09T05:49:46;19.00;99.90
19085;DHT22;9675;51.538;6.728;2023-05-09T05:52:13;18.90;99.90
19085;DHT22;9675;51.538;6.728;2023-05-09T05:54:40;18.90;99.90
19085;DHT22;9675;51.538;6.728;2023-05-09T05:57:07;18.90;99.90
19085;DHT22;9675;51.538;6.728;2023-05-09T05:59:34;18.90;99.90
19085;DHT22;9675;51.538;6.728;2023-05-09T06:02:02;18.90;99.90
19085;DHT22;9675;51.538;6.728;2023-05-09T06:04:29;18.90;99.90
19085;DHT22;9675;51.538;6.728;2023-05-09T06:06:56;18.80;99.90
19085;DHT22;9675;51.538;6.728;2023-05-09T06:09:23;18.90;99.90
19085;DHT22;9675;51.538;6.728;2023-05-09T06:11:51;18.90;99.90
19085;DHT22;9675;51.538;6.728;2023-05-09T06:14:18;18.90;99.90
19085;DHT22;9675;51.538;6.728;2023-05-09T06:16:45;18.90;99.90
19085;DHT22;9675;51.538;6.728;2023-05-09T06:19:13;18.90;99.90
19085;DHT22;9675;51.538;6.728;2023-05-09T06:21:41;18.90;99.90
19085;DHT22;9675;51.538;6.728;2023-05-09T06:24:08;18.90;99.90
19085;DHT22;9675;51.538;6.728;2023-05-09T06:26:36;18.90;99.90
19085;DHT22;9675;51.538;6.728;2023-05-09T06:29:03;18.90;99.90
19085;DHT22;9675;51.538;6.728;2023-05-09T06:31:31;18.90;99.90
19085;DHT22;9675;51.538;6.728;2023-05-09T06:34:00;18.90;99.90
19085;DHT22;9675;51.538;6.728;2023-05-09T06:36:29;18.90;99.90
19085;DHT22;9675;51.538;6.728;2023-05-09T06:38:56;18.90;99.90
19085;DHT22;9675;51.538;6.728;2023-05-09T06:41:24;18.90;99.90
19085;DHT22;9675;51.538;6.728;2023-05-09T06:43:51;18.90;99.90
19085;DHT22;9675;51.538;6.728;2023-05-09T06:46:19;18.90;99.90
19085;DHT22;9675;51.538;6.728;2023-05-09T06:48:46;18.90;99.90
19085;DHT22;9675;51.538;6.728;2023-05-09T06:51:13;18.90;99.90
19085;DHT22;9675;51.538;6.728;2023-05-09T06:53:42;18.90;99.90
19085;DHT22;9675;51.538;6.728;2023-05-09T06:56:09;18.90;99.90
19085;DHT22;9675;51.538;6.728;2023-05-09T06:58:37;19.00;99.90
19085;DHT22;9675;51.538;6.728;2023-05-09T07:01:04;19.00;99.90
19085;DHT22;9675;51.538;6.728;2023-05-09T07:03:31;19.00;99.90
19085;DHT22;9675;51.538;6.728;2023-05-09T07:05:59;19.00;99.90
19085;DHT22;9675;51.538;6.728;2023-05-09T07:08:27;19.00;99.90
19085;DHT22;9675;51.538;6.728;2023-05-09T07:10:56;19.00;99.90
19085;DHT22;9675;51.538;6.728;2023-05-09T07:13:23;19.00;99.90
19085;DHT22;9675;51.538;6.728;2023-05-09T07:15:51;19.00;99.90
19085;DHT22;9675;51.538;6.728;2023-05-09T07:18:18;19.00;99.90
19085;DHT22;9675;51.538;6.728;2023-05-09T07:20:45;19.00;99.90
19085;DHT22;9675;51.538;6.728;2023-05-09T07:23:12;19.00;99.90
19085;DHT22;9675;51.538;6.728;2023-05-09T07:25:39;19.00;99.90
19085;DHT22;9675;51.538;6.728;2023-05-09T07:28:09;19.10;99.90
19085;DHT22;9675;51.538;6.728;2023-05-09T07:30:37;19.10;99.90
19085;DHT22;9675;51.538;6.728;2023-05-09T07:33:04;19.10;99.90
19085;DHT22;9675;51.538;6.728;2023-05-09T07:35:32;19.10;99.90
19085;DHT22;9675;51.538;6.728;2023-05-09T07:37:59;19.10;99.90
19085;DHT22;9675;51.538;6.728;2023-05-09T07:40:27;19.10;99.90
19085;DHT22;9675;51.538;6.728;2023-05-09T07:42:54;19.20;99.90
19085;DHT22;9675;51.538;6.728;2023-05-09T07:45:23;19.20;99.90
19085;DHT22;9675;51.538;6.728;2023-05-09T07:47:50;19.20;99.90
19085;DHT22;9675;51.538;6.728;2023-05-09T07:50:17;19.20;99.90
19085;DHT22;9675;51.538;6.728;2023-05-09T07:52:44;19.20;99.90
19085;DHT22;9675;51.538;6.728;2023-05-09T07:55:12;19.20;99.90
19085;DHT22;9675;51.538;6.728;2023-05-09T07:57:39;19.20;99.90
19085;DHT22;9675;51.538;6.728;2023-05-09T08:00:07;19.30;99.90
19085;DHT22;9675;51.538;6.728;2023-05-09T08:02:36;19.20;99.90
19085;DHT22;9675;51.538;6.728;2023-05-09T08:05:04;19.20;99.90
19085;DHT22;9675;51.538;6.728;2023-05-09T08:07:32;19.20;99.90
19085;DHT22;9675;51.538;6.728;2023-05-09T08:10:00;19.30;99.90
19085;DHT22;9675;51.538;6.728;2023-05-09T08:12:28;19.30;99.90
19085;DHT22;9675;51.538;6.728;2023-05-09T08:14:55;19.30;99.90
19085;DHT22;9675;51.538;6.728;2023-05-09T08:17:22;19.30;99.90
19085;DHT22;9675;51.538;6.728;2023-05-09T08:19:51;19.30;99.90
19085;DHT22;9675;51.538;6.728;2023-05-09T08:22:19;19.40;99.90
19085;DHT22;9675;51.538;6.728;2023-05-09T08:24:46;19.40;99.90
19085;DHT22;9675;51.538;6.728;2023-05-09T08:27:13;19.40;99.90
19085;DHT22;9675;51.538;6.728;2023-05-09T08:29:41;19.40;99.90
19085;DHT22;9675;51.538;6.728;2023-05-09T08:32:09;19.40;99.90
19085;DHT22;9675;51.538;6.728;2023-05-09T08:34:36;19.50;99.90
19085;DHT22;9675;51.538;6.728;2023-05-09T08:37:05;19.50;99.90
19085;DHT22;9675;51.538;6.728;2023-05-09T08:39:32;19.50;99.90
19085;DHT22;9675;51.538;6.728;2023-05-09T08:42:00;19.50;99.90
19085;DHT22;9675;51.538;6.728;2023-05-09T08:44:29;19.60;99.90
19085;DHT22;9675;51.538;6.728;2023-05-09T08:46:59;19.60;99.90
19085;DHT22;9675;51.538;6.728;2023-05-09T08:49:28;19.60;99.90
19085;DHT22;9675;51.538;6.728;2023-05-09T08:51:56;19.70;99.90
19085;DHT22;9675;51.538;6.728;2023-05-09T08:54:25;19.70;99.90
19085;DHT22;9675;51.538;6.728;2023-05-09T08:56:53;19.80;99.90
19085;DHT22;9675;51.538;6.728;2023-05-09T08:59:21;19.80;99.90
19085;DHT22;9675;51.538;6.728;2023-05-09T09:01:50;19.80;99.90
19085;DHT22;9675;51.538;6.728;2023-05-09T09:04:19;19.90;99.90
19085;DHT22;9675;51.538;6.728;2023-05-09T09:06:46;20.00;99.90
19085;DHT22;9675;51.538;6.728;2023-05-09T09:09:14;20.00;99.90
19085;DHT22;9675;51.538;6.728;2023-05-09T09:11:44;20.10;99.90
19085;DHT22;9675;51.538;6.728;2023-05-09T09:14:15;20.20;99.90
19085;DHT22;9675;51.538;6.728;2023-05-09T09:16:49;20.30;99.90
19085;DHT22;9675;51.538;6.728;2023-05-09T09:19:19;20.30;99.90
19085;DHT22;9675;51.538;6.728;2023-05-09T09:21:48;20.40;99.90
19085;DHT22;9675;51.538;6.728;2023-05-09T09:24:21;20.50;99.90
19085;DHT22;9675;51.538;6.728;2023-05-09T09:26:50;20.50;99.90
19085;DHT22;9675;51.538;6.728;2023-05-09T09:29:18;20.60;99.90
19085;DHT22;9675;51.538;6.728;2023-05-09T09:31:51;20.70;99.90
19085;DHT22;9675;51.538;6.728;2023-05-09T09:34:20;20.80;99.90
19085;DHT22;9675;51.538;6.728;2023-05-09T09:36:48;20.80;99.90
19085;DHT22;9675;51.538;6.728;2023-05-09T09:39:16;20.90;99.90
19085;DHT22;9675;51.538;6.728;2023-05-09T09:41:43;21.00;99.90
19085;DHT22;9675;51.538;6.728;2023-05-09T09:44:12;21.10;99.90
19085;DHT22;9675;51.538;6.728;2023-05-09T09:46:42;21.20;99.90
19085;DHT22;9675;51.538;6.728;2023-05-09T09:49:10;21.20;99.90
19085;DHT22;9675;51.538;6.728;2023-05-09T09:51:38;21.30;99.90
19085;DHT22;9675;51.538;6.728;2023-05-09T09:54:06;21.30;99.90
19085;DHT22;9675;51.538;6.728;2023-05-09T09:56:41;21.40;99.90
19085;DHT22;9675;51.538;6.728;2023-05-09T09:59:11;21.50;99.90
19085;DHT22;9675;51.538;6.728;2023-05-09T10:01:56;21.50;99.90
19085;DHT22;9675;51.538;6.728;2023-05-09T10:04:27;21.60;99.90
19085;DHT22;9675;51.538;6.728;2023-05-09T10:06:57;21.60;99.90
19085;DHT22;9675;51.538;6.728;2023-05-09T10:09:26;21.60;99.90
19085;DHT22;9675;51.538;6.728;2023-05-09T10:11:54;21.70;99.90
19085;DHT22;9675;51.538;6.728;2023-05-09T10:14:24;21.70;99.90
19085;DHT22;9675;51.538;6.728;2023-05-09T10:16:54;21.70;99.90
19085;DHT22;9675;51.538;6.728;2023-05-09T10:19:24;21.80;99.90
19085;DHT22;9675;51.538;6.728;2023-05-09T10:21:55;21.90;99.90
19085;DHT22;9675;51.538;6.728;2023-05-09T10:24:27;21.90;99.90
19085;DHT22;9675;51.538;6.728;2023-05-09T10:27:02;21.90;99.90
19085;DHT22;9675;51.538;6.728;2023-05-09T10:29:35;21.90;99.90
19085;DHT22;9675;51.538;6.728;2023-05-09T10:32:15;22.00;99.90
19085;DHT22;9675;51.538;6.728;2023-05-09T10:34:52;22.00;99.90
19085;DHT22;9675;51.538;6.728;2023-05-09T10:37:24;22.00;99.90
19085;DHT22;9675;51.538;6.728;2023-05-09T10:39:52;22.00;99.90
19085;DHT22;9675;51.538;6.728;2023-05-09T10:42:23;22.00;99.90
19085;DHT22;9675;51.538;6.728;2023-05-09T10:44:52;22.00;99.90
19085;DHT22;9675;51.538;6.728;2023-05-09T10:47:20;22.10;99.90
19085;DHT22;9675;51.538;6.728;2023-05-09T10:49:49;22.10;99.90
19085;DHT22;9675;51.538;6.728;2023-05-09T10:52:16;22.20;99.90
19085;DHT22;9675;51.538;6.728;2023-05-09T10:54:43;22.20;99.90
19085;DHT22;9675;51.538;6.728;2023-05-09T10:57:10;22.20;99.90
19085;DHT22;9675;51.538;6.728;2023-05-09T10:59:40;22.20;99.90
19085;DHT22;9675;51.538;6.728;2023-05-09T11:02:12;22.20;99.90
19085;DHT22;9675;51.538;6.728;2023-05-09T11:04:41;22.30;99.90
19085;DHT22;9675;51.538;6.728;2023-05-09T11:07:22;22.30;99.90
19085;DHT22;9675;51.538;6.728;2023-05-09T11:09:52;22.40;99.90
19085;DHT22;9675;51.538;6.728;2023-05-09T11:12:32;22.40;99.90
19085;DHT22;9675;51.538;6.728;2023-05-09T11:15:04;22.40;99.90
19085;DHT22;9675;51.538;6.728;2023-05-09T11:17:37;22.50;99.90
19085;DHT22;9675;51.538;6.728;2023-05-09T11:20:05;22.50;99.90
19085;DHT22;9675;51.538;6.728;2023-05-09T11:22:38;22.50;99.90
19085;DHT22;9675;51.538;6.728;2023-05-09T11:25:08;22.60;99.90
19085;DHT22;9675;51.538;6.728;2023-05-09T11:27:39;22.60;99.90
19085;DHT22;9675;51.538;6.728;2023-05-09T11:30:10;22.60;99.90
19085;DHT22;9675;51.538;6.728;2023-05-09T11:32:49;22.60;99.90
19085;DHT22;9675;51.538;6.728;2023-05-09T11:35:19;22.60;99.90
19085;DHT22;9675;51.538;6.728;2023-05-09T11:37:48;22.70;99.90
19085;DHT22;9675;51.538;6.728;2023-05-09T11:40:18;22.80;99.90
19085;DHT22;9675;51.538;6.728;2023-05-09T11:42:48;22.80;99.90
19085;DHT22;9675;51.538;6.728;2023-05-09T11:45:18;22.80;99.90
19085;DHT22;9675;51.538;6.728;2023-05-09T11:47:47;22.80;99.90
19085;DHT22;9675;51.538;6.728;2023-05-09T11:50:17;22.90;99.90
19085;DHT22;9675;51.538;6.728;2023-05-09T11:52:45;22.90;99.90
19085;DHT22;9675;51.538;6.728;2023-05-09T11:55:14;23.00;99.90
19085;DHT22;9675;51.538;6.728;2023-05-09T11:57:44;23.00;99.90
19085;DHT22;9675;51.538;6.728;2023-05-09T12:00:15;23.00;99.90
19085;DHT22;9675;51.538;6.728;2023-05-09T12:02:44;23.10;99.90
19085;DHT22;9675;51.538;6.728;2023-05-09T12:05:15;23.10;99.90
19085;DHT22;9675;51.538;6.728;2023-05-09T12:07:44;23.10;99.90
19085;DHT22;9675;51.538;6.728;2023-05-09T12:10:13;23.20;99.90
19085;DHT22;9675;51.538;6.728;2023-05-09T12:12:42;23.20;99.90
19085;DHT22;9675;51.538;6.728;2023-05-09T12:15:10;23.20;99.90
19085;DHT22;9675;51.538;6.728;2023-05-09T12:17:39;23.20;99.90
19085;DHT22;9675;51.538;6.728;2023-05-09T12:20:07;23.20;99.90
19085;DHT22;9675;51.538;6.728;2023-05-09T12:22:37;23.30;99.90
19085;DHT22;9675;51.538;6.728;2023-05-09T12:25:05;23.30;99.90
19085;DHT22;9675;51.538;6.728;2023-05-09T12:27:34;23.30;99.90
19085;DHT22;9675;51.538;6.728;2023-05-09T12:30:04;23.30;99.90
19085;DHT22;9675;51.538;6.728;2023-05-09T12:32:33;23.30;99.90
19085;DHT22;9675;51.538;6.728;2023-05-09T12:35:05;23.30;99.90
19085;DHT22;9675;51.538;6.728;2023-05-09T12:37:33;23.40;99.90
19085;DHT22;9675;51.538;6.728;2023-05-09T12:40:02;23.30;99.90
19085;DHT22;9675;51.538;6.728;2023-05-09T12:42:31;23.40;99.90
19085;DHT22;9675;51.538;6.728;2023-05-09T12:45:00;23.30;99.90
19085;DHT22;9675;51.538;6.728;2023-05-09T12:47:29;23.40;99.90
19085;DHT22;9675;51.538;6.728;2023-05-09T12:49:57;23.30;99.90
19085;DHT22;9675;51.538;6.728;2023-05-09T12:52:25;23.30;99.90
19085;DHT22;9675;51.538;6.728;2023-05-09T12:55:06;23.30;99.90
19085;DHT22;9675;51.538;6.728;2023-05-09T12:57:34;23.30;99.90
19085;DHT22;9675;51.538;6.728;2023-05-09T13:00:04;23.30;99.90
19085;DHT22;9675;51.538;6.728;2023-05-09T13:02:34;23.30;99.90
19085;DHT22;9675;51.538;6.728;2023-05-09T13:05:07;23.20;99.90
19085;DHT22;9675;51.538;6.728;2023-05-09T13:07:39;23.20;99.90
19085;DHT22;9675;51.538;6.728;2023-05-09T13:10:13;23.20;99.90
19085;DHT22;9675;51.538;6.728;2023-05-09T13:12:42;23.20;99.90
19085;DHT22;9675;51.538;6.728;2023-05-09T13:15:12;23.20;99.90
19085;DHT22;9675;51.538;6.728;2023-05-09T13:17:40;23.10;99.90
19085;DHT22;9675;51.538;6.728;2023-05-09T13:20:08;23.10;99.90
19085;DHT22;9675;51.538;6.728;2023-05-09T13:22:35;23.10;99.90
19085;DHT22;9675;51.538;6.728;2023-05-09T13:25:02;23.10;99.90
19085;DHT22;9675;51.538;6.728;2023-05-09T13:27:31;23.00;99.90
19085;DHT22;9675;51.538;6.728;2023-05-09T13:29:59;23.00;99.90
19085;DHT22;9675;51.538;6.728;2023-05-09T13:32:26;22.90;99.90
19085;DHT22;9675;51.538;6.728;2023-05-09T13:34:53;22.90;99.90
19085;DHT22;9675;51.538;6.728;2023-05-09T13:37:20;22.90;99.90
19085;DHT22;9675;51.538;6.728;2023-05-09T13:39:47;22.80;99.90
19085;DHT22;9675;51.538;6.728;2023-05-09T13:42:14;22.80;99.90
19085;DHT22;9675;51.538;6.728;2023-05-09T13:44:43;22.80;99.90
19085;DHT22;9675;51.538;6.728;2023-05-09T13:47:10;22.70;99.90
19085;DHT22;9675;51.538;6.728;2023-05-09T13:49:37;22.70;99.90
19085;DHT22;9675;51.538;6.728;2023-05-09T13:52:04;22.60;99.90
19085;DHT22;9675;51.538;6.728;2023-05-09T13:54:32;22.60;99.90
19085;DHT22;9675;51.538;6.728;2023-05-09T13:57:01;22.60;99.90
19085;DHT22;9675;51.538;6.728;2023-05-09T13:59:30;22.50;99.90
19085;DHT22;9675;51.538;6.728;2023-05-09T14:01:59;22.50;99.90
19085;DHT22;9675;51.538;6.728;2023-05-09T14:04:27;22.40;99.90
19085;DHT22;9675;51.538;6.728;2023-05-09T14:06:56;22.40;99.90
19085;DHT22;9675;51.538;6.728;2023-05-09T14:09:25;22.30;99.90
19085;DHT22;9675;51.538;6.728;2023-05-09T14:11:53;22.30;99.90
19085;DHT22;9675;51.538;6.728;2023-05-09T14:14:24;22.20;99.90
19085;DHT22;9675;51.538;6.728;2023-05-09T14:16:51;22.10;99.90
19085;DHT22;9675;51.538;6.728;2023-05-09T14:19:21;22.10;99.90
19085;DHT22;9675;51.538;6.728;2023-05-09T14:21:48;22.10;99.90
19085;DHT22;9675;51.538;6.728;2023-05-09T14:24:17;22.00;99.90
19085;DHT22;9675;51.538;6.728;2023-05-09T14:26:44;22.00;99.90
19085;DHT22;9675;51.538;6.728;2023-05-09T14:29:11;21.90;99.90
19085;DHT22;9675;51.538;6.728;2023-05-09T14:31:38;21.90;99.90
19085;DHT22;9675;51.538;6.728;2023-05-09T14:34:05;21.90;99.90
19085;DHT22;9675;51.538;6.728;2023-05-09T14:36:36;21.80;99.90
19085;DHT22;9675;51.538;6.728;2023-05-09T14:39:03;21.80;99.90
19085;DHT22;9675;51.538;6.728;2023-05-09T14:41:31;21.80;99.90
19085;DHT22;9675;51.538;6.728;2023-05-09T14:43:58;21.70;99.90
19085;DHT22;9675;51.538;6.728;2023-05-09T14:46:26;21.70;99.90
19085;DHT22;9675;51.538;6.728;2023-05-09T14:48:55;21.70;99.90
19085;DHT22;9675;51.538;6.728;2023-05-09T14:51:29;21.70;99.90
19085;DHT22;9675;51.538;6.728;2023-05-09T14:53:59;21.60;99.90
19085;DHT22;9675;51.538;6.728;2023-05-09T14:56:27;21.60;99.90
19085;DHT22;9675;51.538;6.728;2023-05-09T14:58:54;21.60;99.90
19085;DHT22;9675;51.538;6.728;2023-05-09T15:01:22;21.60;99.90
19085;DHT22;9675;51.538;6.728;2023-05-09T15:03:49;21.60;99.90
19085;DHT22;9675;51.538;6.728;2023-05-09T15:06:16;21.60;99.90
19085;DHT22;9675;51.538;6.728;2023-05-09T15:08:43;21.60;99.90
19085;DHT22;9675;51.538;6.728;2023-05-09T15:11:12;21.50;99.90
19085;DHT22;9675;51.538;6.728;2023-05-09T15:13:39;21.50;99.90
19085;DHT22;9675;51.538;6.728;2023-05-09T15:16:07;21.50;99.90
19085;DHT22;9675;51.538;6.728;2023-05-09T15:18:34;21.40;99.90
19085;DHT22;9675;51.538;6.728;2023-05-09T15:21:01;21.40;99.90
19085;DHT22;9675;51.538;6.728;2023-05-09T15:23:29;21.30;99.90
19085;DHT22;9675;51.538;6.728;2023-05-09T15:25:56;21.30;99.90
19085;DHT22;9675;51.538;6.728;2023-05-09T15:28:25;21.30;99.90
19085;DHT22;9675;51.538;6.728;2023-05-09T15:30:52;21.30;99.90
19085;DHT22;9675;51.538;6.728;2023-05-09T15:33:19;21.20;99.90
19085;DHT22;9675;51.538;6.728;2023-05-09T15:35:46;21.20;99.90
19085;DHT22;9675;51.538;6.728;2023-05-09T15:38:14;21.20;99.90
19085;DHT22;9675;51.538;6.728;2023-05-09T15:40:42;21.20;99.90
19085;DHT22;9675;51.538;6.728;2023-05-09T15:43:09;21.20;99.90
19085;DHT22;9675;51.538;6.728;2023-05-09T15:45:38;21.20;99.90
19085;DHT22;9675;51.538;6.728;2023-05-09T15:48:09;21.10;99.90
19085;DHT22;9675;51.538;6.728;2023-05-09T15:50:36;21.10;99.90
19085;DHT22;9675;51.538;6.728;2023-05-09T15:53:04;21.10;99.90
19085;DHT22;9675;51.538;6.728;2023-05-09T15:55:31;21.10;99.90